Terminal Aerodrome Forecast
Issued by NWS Twin Cities, MN

Home | Current Version | Previous Version | Graphics & Text | Print | Product List | Glossary On
Versions: 1 2 3 4 5 6 7 8 9 10 11 12 13 14 15 16 17 18
782
FTUS43 KMPX 080537
TAFSTC
TAF
KSTC 080537Z 0806/0906 32024G31KT 6SM -SN BLSN OVC035
      TEMPO 0806/0810 3SM -SN OVC025
     FM081700 33022G30KT P6SM OVC020
     FM082100 32018G28KT P6SM BKN025=

USA.gov is the U.S. government's official web portal to all federal, state and local government web resources and services.